sensor_id;sensor_type;location;lat;lon;timestamp;P1;durP1;ratioP1;P2;durP2;ratioP2
57778;SDS011;43608;49.486;9.640;2022-07-21T00:00:25;4.63;;;4.13;;
57778;SDS011;43608;49.486;9.640;2022-07-21T00:00:56;4.95;;;4.15;;
57778;SDS011;43608;49.486;9.640;2022-07-21T00:01:26;4.55;;;4.00;;
57778;SDS011;43608;49.486;9.640;2022-07-21T00:01:57;4.35;;;3.95;;
57778;SDS011;43608;49.486;9.640;2022-07-21T00:02:27;4.57;;;4.18;;
57778;SDS011;43608;49.486;9.640;2022-07-21T00:02:58;4.40;;;4.00;;
57778;SDS011;43608;49.486;9.640;2022-07-21T00:03:28;4.30;;;3.90;;
57778;SDS011;43608;49.486;9.640;2022-07-21T00:03:59;4.30;;;3.90;;
57778;SDS011;43608;49.486;9.640;2022-07-21T00:04:29;4.72;;;4.10;;
57778;SDS011;43608;49.486;9.640;2022-07-21T00:05:00;4.38;;;3.72;;
57778;SDS011;43608;49.486;9.640;2022-07-21T00:05:30;4.65;;;4.00;;
57778;SDS011;43608;49.486;9.640;2022-07-21T00:06:01;4.70;;;3.80;;
57778;SDS011;43608;49.486;9.640;2022-07-21T00:06:32;4.13;;;3.72;;
57778;SDS011;43608;49.486;9.640;2022-07-21T00:07:03;4.35;;;3.95;;
57778;SDS011;43608;49.486;9.640;2022-07-21T00:07:33;4.63;;;4.00;;
57778;SDS011;43608;49.486;9.640;2022-07-21T00:08:04;4.50;;;4.10;;
57778;SDS011;43608;49.486;9.640;2022-07-21T00:08:34;4.20;;;3.80;;
57778;SDS011;43608;49.486;9.640;2022-07-21T00:09:05;4.43;;;4.00;;
57778;SDS011;43608;49.486;9.640;2022-07-21T00:09:35;4.75;;;4.15;;
57778;SDS011;43608;49.486;9.640;2022-07-21T00:10:06;4.68;;;4.22;;
57778;SDS011;43608;49.486;9.640;2022-07-21T00:10:37;5.05;;;4.50;;
57778;SDS011;43608;49.486;9.640;2022-07-21T00:11:07;5.32;;;4.50;;
57778;SDS011;43608;49.486;9.640;2022-07-21T00:11:38;4.85;;;4.35;;
57778;SDS011;43608;49.486;9.640;2022-07-21T00:12:08;4.82;;;4.32;;
57778;SDS011;43608;49.486;9.640;2022-07-21T00:12:39;4.30;;;3.90;;
57778;SDS011;43608;49.486;9.640;2022-07-21T00:13:10;4.93;;;4.10;;
57778;SDS011;43608;49.486;9.640;2022-07-21T00:13:40;4.90;;;4.30;;
57778;SDS011;43608;49.486;9.640;2022-07-21T00:14:12;4.88;;;4.25;;
57778;SDS011;43608;49.486;9.640;2022-07-21T00:14:42;4.25;;;3.85;;
57778;SDS011;43608;49.486;9.640;2022-07-21T00:15:14;4.47;;;4.07;;
57778;SDS011;43608;49.486;9.640;2022-07-21T00:15:46;4.82;;;4.07;;
57778;SDS011;43608;49.486;9.640;2022-07-21T00:16:17;4.80;;;4.30;;
57778;SDS011;43608;49.486;9.640;2022-07-21T00:16:47;5.47;;;4.65;;
57778;SDS011;43608;49.486;9.640;2022-07-21T00:17:18;4.95;;;4.45;;
57778;SDS011;43608;49.486;9.640;2022-07-21T00:17:48;4.60;;;4.13;;
57778;SDS011;43608;49.486;9.640;2022-07-21T00:18:19;5.50;;;4.28;;
57778;SDS011;43608;49.486;9.640;2022-07-21T00:18:50;4.68;;;4.18;;
57778;SDS011;43608;49.486;9.640;2022-07-21T00:19:20;4.75;;;4.25;;
57778;SDS011;43608;49.486;9.640;2022-07-21T00:19:51;4.80;;;4.30;;
57778;SDS011;43608;49.486;9.640;2022-07-21T00:20:21;4.78;;;4.28;;
57778;SDS011;43608;49.486;9.640;2022-07-21T00:20:51;4.75;;;4.00;;
57778;SDS011;43608;49.486;9.640;2022-07-21T00:21:22;4.40;;;4.00;;
57778;SDS011;43608;49.486;9.640;2022-07-21T00:21:52;4.70;;;4.22;;
57778;SDS011;43608;49.486;9.640;2022-07-21T00:22:23;4.38;;;3.97;;
57778;SDS011;43608;49.486;9.640;2022-07-21T00:22:53;4.88;;;4.38;;
57778;SDS011;43608;49.486;9.640;2022-07-21T00:23:24;5.60;;;4.50;;
57778;SDS011;43608;49.486;9.640;2022-07-21T00:23:55;4.93;;;4.43;;
57778;SDS011;43608;49.486;9.640;2022-07-21T00:24:26;4.90;;;4.40;;
57778;SDS011;43608;49.486;9.640;2022-07-21T00:24:56;4.90;;;4.40;;
57778;SDS011;43608;49.486;9.640;2022-07-21T00:25:28;4.70;;;4.30;;
57778;SDS011;43608;49.486;9.640;2022-07-21T00:25:59;4.70;;;4.22;;
57778;SDS011;43608;49.486;9.640;2022-07-21T00:26:30;5.38;;;4.30;;
57778;SDS011;43608;49.486;9.640;2022-07-21T00:27:00;4.85;;;4.15;;
57778;SDS011;43608;49.486;9.640;2022-07-21T00:27:30;4.78;;;4.28;;
57778;SDS011;43608;49.486;9.640;2022-07-21T00:28:02;4.70;;;4.10;;
57778;SDS011;43608;49.486;9.640;2022-07-21T00:28:33;4.55;;;3.97;;
57778;SDS011;43608;49.486;9.640;2022-07-21T00:29:03;4.68;;;4.05;;
57778;SDS011;43608;49.486;9.640;2022-07-21T00:29:34;4.90;;;4.30;;
57778;SDS011;43608;49.486;9.640;2022-07-21T00:30:04;4.75;;;4.25;;
57778;SDS011;43608;49.486;9.640;2022-07-21T00:30:36;4.75;;;4.25;;
57778;SDS011;43608;49.486;9.640;2022-07-21T00:31:07;5.00;;;4.30;;
57778;SDS011;43608;49.486;9.640;2022-07-21T00:31:37;5.65;;;4.43;;
57778;SDS011;43608;49.486;9.640;2022-07-21T00:32:07;5.00;;;4.50;;
57778;SDS011;43608;49.486;9.640;2022-07-21T00:32:38;5.55;;;4.45;;
57778;SDS011;43608;49.486;9.640;2022-07-21T00:33:09;4.70;;;4.30;;
57778;SDS011;43608;49.486;9.640;2022-07-21T00:33:40;4.60;;;4.10;;
57778;SDS011;43608;49.486;9.640;2022-07-21T00:34:10;4.75;;;4.25;;
57778;SDS011;43608;49.486;9.640;2022-07-21T00:34:40;4.70;;;4.22;;
57778;SDS011;43608;49.486;9.640;2022-07-21T00:35:11;4.90;;;4.40;;
57778;SDS011;43608;49.486;9.640;2022-07-21T00:35:42;4.50;;;3.97;;
57778;SDS011;43608;49.486;9.640;2022-07-21T00:36:12;5.57;;;4.38;;
57778;SDS011;43608;49.486;9.640;2022-07-21T00:36:43;4.82;;;4.32;;
57778;SDS011;43608;49.486;9.640;2022-07-21T00:37:13;5.03;;;4.50;;
57778;SDS011;43608;49.486;9.640;2022-07-21T00:37:44;4.90;;;4.32;;
57778;SDS011;43608;49.486;9.640;2022-07-21T00:38:14;5.53;;;4.68;;
57778;SDS011;43608;49.486;9.640;2022-07-21T00:38:44;5.53;;;4.47;;
57778;SDS011;43608;49.486;9.640;2022-07-21T00:39:15;4.88;;;4.38;;
57778;SDS011;43608;49.486;9.640;2022-07-21T00:39:45;4.60;;;4.18;;
57778;SDS011;43608;49.486;9.640;2022-07-21T00:40:16;5.32;;;4.80;;
57778;SDS011;43608;49.486;9.640;2022-07-21T00:40:46;5.20;;;4.70;;
57778;SDS011;43608;49.486;9.640;2022-07-21T00:41:17;5.90;;;4.65;;
57778;SDS011;43608;49.486;9.640;2022-07-21T00:41:47;5.57;;;4.53;;
57778;SDS011;43608;49.486;9.640;2022-07-21T00:42:24;4.88;;;4.25;;
57778;SDS011;43608;49.486;9.640;2022-07-21T00:42:59;4.85;;;4.32;;
57778;SDS011;43608;49.486;9.640;2022-07-21T00:43:29;4.88;;;4.35;;
57778;SDS011;43608;49.486;9.640;2022-07-21T00:44:00;5.65;;;4.40;;
57778;SDS011;43608;49.486;9.640;2022-07-21T00:44:30;4.60;;;4.20;;
57778;SDS011;43608;49.486;9.640;2022-07-21T00:45:01;4.80;;;4.30;;
57778;SDS011;43608;49.486;9.640;2022-07-21T00:45:35;4.50;;;4.07;;
57778;SDS011;43608;49.486;9.640;2022-07-21T00:46:06;4.50;;;4.10;;
57778;SDS011;43608;49.486;9.640;2022-07-21T00:46:36;4.13;;;3.72;;
57778;SDS011;43608;49.486;9.640;2022-07-21T00:47:07;4.57;;;3.95;;
57778;SDS011;43608;49.486;9.640;2022-07-21T00:47:37;4.30;;;3.90;;
57778;SDS011;43608;49.486;9.640;2022-07-21T00:48:08;4.18;;;3.78;;
57778;SDS011;43608;49.486;9.640;2022-07-21T00:48:38;4.47;;;4.07;;
57778;SDS011;43608;49.486;9.640;2022-07-21T00:49:09;4.28;;;3.88;;
57778;SDS011;43608;49.486;9.640;2022-07-21T00:49:39;4.13;;;3.70;;
57778;SDS011;43608;49.486;9.640;2022-07-21T00:50:13;4.22;;;3.60;;
57778;SDS011;43608;49.486;9.640;2022-07-21T00:50:46;4.28;;;3.88;;
57778;SDS011;43608;49.486;9.640;2022-07-21T00:51:17;4.10;;;3.70;;
57778;SDS011;43608;49.486;9.640;2022-07-21T00:51:48;4.10;;;3.70;;
57778;SDS011;43608;49.486;9.640;2022-07-21T00:52:19;4.05;;;3.65;;
57778;SDS011;43608;49.486;9.640;2022-07-21T00:52:50;4.10;;;3.65;;
57778;SDS011;43608;49.486;9.640;2022-07-21T00:53:21;4.28;;;3.88;;
57778;SDS011;43608;49.486;9.640;2022-07-21T00:53:51;4.25;;;3.85;;
57778;SDS011;43608;49.486;9.640;2022-07-21T00:54:22;4.00;;;3.60;;
57778;SDS011;43608;49.486;9.640;2022-07-21T00:54:52;4.32;;;3.83;;
57778;SDS011;43608;49.486;9.640;2022-07-21T00:55:23;3.97;;;3.58;;
57778;SDS011;43608;49.486;9.640;2022-07-21T00:55:54;4.43;;;3.80;;
57778;SDS011;43608;49.486;9.640;2022-07-21T00:56:24;4.18;;;3.78;;
57778;SDS011;43608;49.486;9.640;2022-07-21T00:56:55;4.45;;;3.90;;
57778;SDS011;43608;49.486;9.640;2022-07-21T00:57:25;4.43;;;3.90;;
57778;SDS011;43608;49.486;9.640;2022-07-21T00:57:55;4.53;;;4.03;;
57778;SDS011;43608;49.486;9.640;2022-07-21T00:58:26;4.70;;;3.70;;
57778;SDS011;43608;49.486;9.640;2022-07-21T00:58:57;4.93;;;3.83;;
57778;SDS011;43608;49.486;9.640;2022-07-21T00:59:28;4.20;;;3.80;;
57778;SDS011;43608;49.486;9.640;2022-07-21T00:59:59;4.60;;;3.88;;
57778;SDS011;43608;49.486;9.640;2022-07-21T01:00:30;4.43;;;4.03;;
57778;SDS011;43608;49.486;9.640;2022-07-21T01:01:01;4.13;;;3.72;;
57778;SDS011;43608;49.486;9.640;2022-07-21T01:01:31;4.35;;;3.88;;
57778;SDS011;43608;49.486;9.640;2022-07-21T01:02:02;4.72;;;4.22;;
57778;SDS011;43608;49.486;9.640;2022-07-21T01:02:33;4.30;;;3.90;;
57778;SDS011;43608;49.486;9.640;2022-07-21T01:03:06;4.53;;;4.00;;
57778;SDS011;43608;49.486;9.640;2022-07-21T01:03:37;4.18;;;3.60;;
57778;SDS011;43608;49.486;9.640;2022-07-21T01:04:07;4.55;;;3.90;;
57778;SDS011;43608;49.486;9.640;2022-07-21T01:04:38;4.40;;;3.97;;
57778;SDS011;43608;49.486;9.640;2022-07-21T01:05:09;4.03;;;3.63;;
57778;SDS011;43608;49.486;9.640;2022-07-21T01:05:44;4.85;;;3.90;;
57778;SDS011;43608;49.486;9.640;2022-07-21T01:06:15;4.22;;;3.53;;
57778;SDS011;43608;49.486;9.640;2022-07-21T01:06:45;3.95;;;3.55;;
57778;SDS011;43608;49.486;9.640;2022-07-21T01:07:15;4.85;;;3.80;;
57778;SDS011;43608;49.486;9.640;2022-07-21T01:07:47;3.92;;;3.47;;
57778;SDS011;43608;49.486;9.640;2022-07-21T01:08:19;3.55;;;3.22;;
57778;SDS011;43608;49.486;9.640;2022-07-21T01:08:50;4.45;;;3.53;;
57778;SDS011;43608;49.486;9.640;2022-07-21T01:09:21;3.90;;;3.50;;
57778;SDS011;43608;49.486;9.640;2022-07-21T01:09:52;3.63;;;3.33;;
57778;SDS011;43608;49.486;9.640;2022-07-21T01:10:25;4.15;;;3.70;;
57778;SDS011;43608;49.486;9.640;2022-07-21T01:10:55;4.32;;;3.50;;
57778;SDS011;43608;49.486;9.640;2022-07-21T01:11:25;4.30;;;3.90;;
57778;SDS011;43608;49.486;9.640;2022-07-21T01:11:57;4.10;;;3.70;;
57778;SDS011;43608;49.486;9.640;2022-07-21T01:12:28;4.32;;;3.92;;
57778;SDS011;43608;49.486;9.640;2022-07-21T01:12:59;4.22;;;3.80;;
57778;SDS011;43608;49.486;9.640;2022-07-21T01:13:31;3.83;;;3.42;;
57778;SDS011;43608;49.486;9.640;2022-07-21T01:14:02;4.00;;;3.60;;
57778;SDS011;43608;49.486;9.640;2022-07-21T01:14:32;4.10;;;3.70;;
57778;SDS011;43608;49.486;9.640;2022-07-21T01:15:04;4.72;;;4.22;;
57778;SDS011;43608;49.486;9.640;2022-07-21T01:15:38;4.55;;;4.13;;
57778;SDS011;43608;49.486;9.640;2022-07-21T01:16:09;4.18;;;3.70;;
57778;SDS011;43608;49.486;9.640;2022-07-21T01:16:40;4.00;;;3.60;;
57778;SDS011;43608;49.486;9.640;2022-07-21T01:17:11;4.20;;;3.80;;
57778;SDS011;43608;49.486;9.640;2022-07-21T01:17:42;4.60;;;3.67;;
57778;SDS011;43608;49.486;9.640;2022-07-21T01:18:13;4.72;;;4.00;;
57778;SDS011;43608;49.486;9.640;2022-07-21T01:18:44;3.95;;;3.55;;
57778;SDS011;43608;49.486;9.640;2022-07-21T01:19:14;3.78;;;3.25;;
57778;SDS011;43608;49.486;9.640;2022-07-21T01:19:45;4.45;;;3.70;;
57778;SDS011;43608;49.486;9.640;2022-07-21T01:20:16;4.30;;;3.60;;
57778;SDS011;43608;49.486;9.640;2022-07-21T01:20:52;4.68;;;3.88;;
57778;SDS011;43608;49.486;9.640;2022-07-21T01:21:28;4.22;;;3.70;;
57778;SDS011;43608;49.486;9.640;2022-07-21T01:22:06;4.30;;;3.90;;
57778;SDS011;43608;49.486;9.640;2022-07-21T01:22:38;4.70;;;4.10;;
57778;SDS011;43608;49.486;9.640;2022-07-21T01:23:10;4.50;;;3.88;;
57778;SDS011;43608;49.486;9.640;2022-07-21T01:23:41;4.43;;;4.03;;
57778;SDS011;43608;49.486;9.640;2022-07-21T01:24:12;4.18;;;3.78;;
57778;SDS011;43608;49.486;9.640;2022-07-21T01:24:43;4.80;;;3.90;;
57778;SDS011;43608;49.486;9.640;2022-07-21T01:25:13;3.67;;;3.38;;
57778;SDS011;43608;49.486;9.640;2022-07-21T01:25:51;5.45;;;4.15;;
57778;SDS011;43608;49.486;9.640;2022-07-21T01:26:21;4.18;;;3.70;;
57778;SDS011;43608;49.486;9.640;2022-07-21T01:26:52;4.47;;;3.83;;
57778;SDS011;43608;49.486;9.640;2022-07-21T01:27:27;4.50;;;3.80;;
57778;SDS011;43608;49.486;9.640;2022-07-21T01:27:58;5.25;;;3.70;;
57778;SDS011;43608;49.486;9.640;2022-07-21T01:28:28;3.92;;;3.53;;
57778;SDS011;43608;49.486;9.640;2022-07-21T01:28:58;4.00;;;3.60;;
57778;SDS011;43608;49.486;9.640;2022-07-21T01:29:29;4.72;;;3.72;;
57778;SDS011;43608;49.486;9.640;2022-07-21T01:29:59;3.90;;;3.50;;
57778;SDS011;43608;49.486;9.640;2022-07-21T01:30:30;4.40;;;4.00;;
57778;SDS011;43608;49.486;9.640;2022-07-21T01:31:01;3.88;;;3.50;;
57778;SDS011;43608;49.486;9.640;2022-07-21T01:31:31;4.50;;;3.67;;
57778;SDS011;43608;49.486;9.640;2022-07-21T01:32:01;4.18;;;3.78;;
57778;SDS011;43608;49.486;9.640;2022-07-21T01:32:34;4.13;;;3.72;;
57778;SDS011;43608;49.486;9.640;2022-07-21T01:33:05;4.18;;;3.78;;
57778;SDS011;43608;49.486;9.640;2022-07-21T01:33:36;4.05;;;3.50;;
57778;SDS011;43608;49.486;9.640;2022-07-21T01:34:06;3.90;;;3.45;;
57778;SDS011;43608;49.486;9.640;2022-07-21T01:34:37;4.30;;;3.40;;
57778;SDS011;43608;49.486;9.640;2022-07-21T01:35:08;4.63;;;3.58;;
57778;SDS011;43608;49.486;9.640;2022-07-21T01:35:41;4.05;;;3.65;;
57778;SDS011;43608;49.486;9.640;2022-07-21T01:36:11;4.10;;;3.70;;
57778;SDS011;43608;49.486;9.640;2022-07-21T01:36:42;4.10;;;3.70;;
57778;SDS011;43608;49.486;9.640;2022-07-21T01:37:12;4.10;;;3.50;;
57778;SDS011;43608;49.486;9.640;2022-07-21T01:37:45;4.50;;;3.72;;
57778;SDS011;43608;49.486;9.640;2022-07-21T01:38:17;5.35;;;3.80;;
57778;SDS011;43608;49.486;9.640;2022-07-21T01:39:06;4.10;;;3.50;;
57778;SDS011;43608;49.486;9.640;2022-07-21T01:39:56;4.85;;;3.70;;
57778;SDS011;43608;49.486;9.640;2022-07-21T01:40:45;3.95;;;3.55;;
57778;SDS011;43608;49.486;9.640;2022-07-21T01:41:34;4.63;;;4.20;;
57778;SDS011;43608;49.486;9.640;2022-07-21T01:42:04;4.68;;;4.25;;
57778;SDS011;43608;49.486;9.640;2022-07-21T01:42:35;4.57;;;4.15;;
57778;SDS011;43608;49.486;9.640;2022-07-21T01:43:06;4.78;;;4.28;;
57778;SDS011;43608;49.486;9.640;2022-07-21T01:43:36;5.82;;;4.57;;
57778;SDS011;43608;49.486;9.640;2022-07-21T01:44:07;4.70;;;4.05;;
57778;SDS011;43608;49.486;9.640;2022-07-21T01:44:39;4.60;;;4.15;;
57778;SDS011;43608;49.486;9.640;2022-07-21T01:45:09;5.10;;;4.38;;
57778;SDS011;43608;49.486;9.640;2022-07-21T01:45:40;5.03;;;4.45;;
57778;SDS011;43608;49.486;9.640;2022-07-21T01:46:11;5.03;;;4.50;;
57778;SDS011;43608;49.486;9.640;2022-07-21T01:46:44;4.80;;;4.30;;
57778;SDS011;43608;49.486;9.640;2022-07-21T01:47:16;5.00;;;4.50;;
57778;SDS011;43608;49.486;9.640;2022-07-21T01:47:47;4.88;;;4.18;;
57778;SDS011;43608;49.486;9.640;2022-07-21T01:48:18;4.30;;;3.90;;
57778;SDS011;43608;49.486;9.640;2022-07-21T01:48:48;4.43;;;4.03;;
57778;SDS011;43608;49.486;9.640;2022-07-21T01:49:19;4.93;;;4.13;;
57778;SDS011;43608;49.486;9.640;2022-07-21T01:49:50;4.60;;;3.92;;
57778;SDS011;43608;49.486;9.640;2022-07-21T01:50:21;4.22;;;3.83;;
57778;SDS011;43608;49.486;9.640;2022-07-21T01:50:56;4.65;;;4.15;;
57778;SDS011;43608;49.486;9.640;2022-07-21T01:51:26;4.75;;;4.25;;
57778;SDS011;43608;49.486;9.640;2022-07-21T01:51:57;4.78;;;4.28;;
57778;SDS011;43608;49.486;9.640;2022-07-21T01:52:27;4.63;;;4.20;;
57778;SDS011;43608;49.486;9.640;2022-07-21T01:52:58;4.70;;;4.00;;
57778;SDS011;43608;49.486;9.640;2022-07-21T01:53:28;4.65;;;4.15;;
57778;SDS011;43608;49.486;9.640;2022-07-21T01:53:59;4.75;;;4.25;;
57778;SDS011;43608;49.486;9.640;2022-07-21T01:54:29;4.70;;;4.20;;
57778;SDS011;43608;49.486;9.640;2022-07-21T01:55:00;4.82;;;4.22;;
57778;SDS011;43608;49.486;9.640;2022-07-21T01:55:30;4.80;;;4.18;;
57778;SDS011;43608;49.486;9.640;2022-07-21T01:56:03;4.90;;;4.03;;
57778;SDS011;43608;49.486;9.640;2022-07-21T01:56:34;5.53;;;4.32;;
57778;SDS011;43608;49.486;9.640;2022-07-21T01:57:06;4.97;;;4.47;;
57778;SDS011;43608;49.486;9.640;2022-07-21T01:57:36;4.45;;;3.83;;
57778;SDS011;43608;49.486;9.640;2022-07-21T01:58:07;5.03;;;4.00;;
57778;SDS011;43608;49.486;9.640;2022-07-21T01:58:37;4.13;;;3.72;;
57778;SDS011;43608;49.486;9.640;2022-07-21T01:59:07;4.15;;;3.72;;
57778;SDS011;43608;49.486;9.640;2022-07-21T01:59:38;4.55;;;3.70;;
57778;SDS011;43608;49.486;9.640;2022-07-21T02:00:08;4.30;;;3.90;;
57778;SDS011;43608;49.486;9.640;2022-07-21T02:00:40;3.90;;;3.50;;
57778;SDS011;43608;49.486;9.640;2022-07-21T02:01:11;4.00;;;3.60;;
57778;SDS011;43608;49.486;9.640;2022-07-21T02:01:41;4.10;;;3.70;;
57778;SDS011;43608;49.486;9.640;2022-07-21T02:02:11;3.92;;;3.53;;
57778;SDS011;43608;49.486;9.640;2022-07-21T02:02:42;4.47;;;3.75;;
57778;SDS011;43608;49.486;9.640;2022-07-21T02:03:13;4.38;;;3.80;;
57778;SDS011;43608;49.486;9.640;2022-07-21T02:03:44;4.18;;;3.78;;
57778;SDS011;43608;49.486;9.640;2022-07-21T02:04:14;5.03;;;3.75;;
57778;SDS011;43608;49.486;9.640;2022-07-21T02:04:45;4.40;;;4.00;;
57778;SDS011;43608;49.486;9.640;2022-07-21T02:05:15;4.15;;;3.75;;
57778;SDS011;43608;49.486;9.640;2022-07-21T02:05:45;4.93;;;3.67;;
57778;SDS011;43608;49.486;9.640;2022-07-21T02:06:16;4.10;;;3.70;;
57778;SDS011;43608;49.486;9.640;2022-07-21T02:06:46;4.28;;;3.60;;
57778;SDS011;43608;49.486;9.640;2022-07-21T02:07:17;4.32;;;3.58;;
57778;SDS011;43608;49.486;9.640;2022-07-21T02:07:47;4.10;;;3.55;;
57778;SDS011;43608;49.486;9.640;2022-07-21T02:08:18;3.92;;;3.50;;
57778;SDS011;43608;49.486;9.640;2022-07-21T02:08:48;4.03;;;3.60;;
57778;SDS011;43608;49.486;9.640;2022-07-21T02:09:19;4.35;;;3.95;;
57778;SDS011;43608;49.486;9.640;2022-07-21T02:09:49;4.28;;;3.88;;
57778;SDS011;43608;49.486;9.640;2022-07-21T02:10:20;4.32;;;3.92;;
57778;SDS011;43608;49.486;9.640;2022-07-21T02:10:50;4.10;;;3.70;;
57778;SDS011;43608;49.486;9.640;2022-07-21T02:11:21;3.85;;;3.45;;
57778;SDS011;43608;49.486;9.640;2022-07-21T02:11:52;4.00;;;3.60;;
57778;SDS011;43608;49.486;9.640;2022-07-21T02:12:22;4.03;;;3.47;;
57778;SDS011;43608;49.486;9.640;2022-07-21T02:12:53;4.07;;;3.55;;
57778;SDS011;43608;49.486;9.640;2022-07-21T02:13:24;3.83;;;3.42;;
57778;SDS011;43608;49.486;9.640;2022-07-21T02:13:54;4.20;;;3.80;;
57778;SDS011;43608;49.486;9.640;2022-07-21T02:14:25;4.25;;;3.80;;
57778;SDS011;43608;49.486;9.640;2022-07-21T02:14:55;4.13;;;3.72;;
57778;SDS011;43608;49.486;9.640;2022-07-21T02:15:26;4.20;;;3.60;;
57778;SDS011;43608;49.486;9.640;2022-07-21T02:15:56;4.28;;;3.70;;
57778;SDS011;43608;49.486;9.640;2022-07-21T02:16:26;4.22;;;3.83;;
57778;SDS011;43608;49.486;9.640;2022-07-21T02:16:57;4.22;;;3.83;;
57778;SDS011;43608;49.486;9.640;2022-07-21T02:17:27;4.20;;;3.80;;
57778;SDS011;43608;49.486;9.640;2022-07-21T02:17:58;3.97;;;3.50;;
57778;SDS011;43608;49.486;9.640;2022-07-21T02:18:29;3.67;;;3.28;;
57778;SDS011;43608;49.486;9.640;2022-07-21T02:19:00;4.32;;;3.80;;
57778;SDS011;43608;49.486;9.640;2022-07-21T02:19:30;4.15;;;3.75;;
57778;SDS011;43608;49.486;9.640;2022-07-21T02:20:01;3.90;;;3.47;;
57778;SDS011;43608;49.486;9.640;2022-07-21T02:20:31;4.30;;;3.90;;
57778;SDS011;43608;49.486;9.640;2022-07-21T02:21:02;4.00;;;3.60;;
57778;SDS011;43608;49.486;9.640;2022-07-21T02:21:32;4.05;;;3.50;;
57778;SDS011;43608;49.486;9.640;2022-07-21T02:22:03;4.47;;;3.55;;
57778;SDS011;43608;49.486;9.640;2022-07-21T02:22:33;3.80;;;3.30;;
57778;SDS011;43608;49.486;9.640;2022-07-21T02:23:03;3.80;;;3.30;;
57778;SDS011;43608;49.486;9.640;2022-07-21T02:23:34;3.80;;;3.40;;
57778;SDS011;43608;49.486;9.640;2022-07-21T02:24:04;4.10;;;3.70;;
57778;SDS011;43608;49.486;9.640;2022-07-21T02:24:36;4.18;;;3.55;;
57778;SDS011;43608;49.486;9.640;2022-07-21T02:25:06;4.15;;;3.60;;
57778;SDS011;43608;49.486;9.640;2022-07-21T02:25:37;4.30;;;3.58;;
57778;SDS011;43608;49.486;9.640;2022-07-21T02:26:07;3.70;;;3.30;;
57778;SDS011;43608;49.486;9.640;2022-07-21T02:26:38;3.90;;;3.50;;
57778;SDS011;43608;49.486;9.640;2022-07-21T02:27:08;3.78;;;3.35;;
57778;SDS011;43608;49.486;9.640;2022-07-21T02:27:39;3.40;;;3.10;;
57778;SDS011;43608;49.486;9.640;2022-07-21T02:28:10;3.65;;;3.30;;
57778;SDS011;43608;49.486;9.640;2022-07-21T02:28:40;3.72;;;3.42;;
57778;SDS011;43608;49.486;9.640;2022-07-21T02:29:11;3.55;;;3.22;;
57778;SDS011;43608;49.486;9.640;2022-07-21T02:29:41;3.65;;;3.35;;
57778;SDS011;43608;49.486;9.640;2022-07-21T02:30:12;3.75;;;3.35;;
57778;SDS011;43608;49.486;9.640;2022-07-21T02:30:43;4.00;;;3.50;;
57778;SDS011;43608;49.486;9.640;2022-07-21T02:31:13;4.15;;;3.45;;
57778;SDS011;43608;49.486;9.640;2022-07-21T02:31:44;3.90;;;3.30;;
57778;SDS011;43608;49.486;9.640;2022-07-21T02:32:14;3.95;;;3.58;;
57778;SDS011;43608;49.486;9.640;2022-07-21T02:32:44;4.35;;;3.70;;
57778;SDS011;43608;49.486;9.640;2022-07-21T02:33:15;4.57;;;3.90;;
57778;SDS011;43608;49.486;9.640;2022-07-21T02:33:46;3.90;;;3.47;;
57778;SDS011;43608;49.486;9.640;2022-07-21T02:34:16;3.83;;;3.42;;
57778;SDS011;43608;49.486;9.640;2022-07-21T02:34:47;3.90;;;3.50;;
57778;SDS011;43608;49.486;9.640;2022-07-21T02:35:17;3.80;;;3.40;;
57778;SDS011;43608;49.486;9.640;2022-07-21T02:35:47;4.00;;;3.60;;
57778;SDS011;43608;49.486;9.640;2022-07-21T02:36:18;3.58;;;3.28;;
57778;SDS011;43608;49.486;9.640;2022-07-21T02:36:48;4.00;;;3.40;;
57778;SDS011;43608;49.486;9.640;2022-07-21T02:37:19;3.83;;;3.40;;
57778;SDS011;43608;49.486;9.640;2022-07-21T02:37:49;3.80;;;3.15;;
57778;SDS011;43608;49.486;9.640;2022-07-21T02:38:19;4.38;;;3.67;;
57778;SDS011;43608;49.486;9.640;2022-07-21T02:38:50;4.15;;;3.75;;
57778;SDS011;43608;49.486;9.640;2022-07-21T02:39:20;4.93;;;3.75;;
57778;SDS011;43608;49.486;9.640;2022-07-21T02:39:51;4.85;;;4.00;;
57778;SDS011;43608;49.486;9.640;2022-07-21T02:40:21;4.20;;;3.80;;
57778;SDS011;43608;49.486;9.640;2022-07-21T02:40:52;5.40;;;4.10;;
57778;SDS011;43608;49.486;9.640;2022-07-21T02:41:22;4.25;;;3.85;;
57778;SDS011;43608;49.486;9.640;2022-07-21T02:41:53;3.80;;;3.40;;
57778;SDS011;43608;49.486;9.640;2022-07-21T02:42:23;5.10;;;4.10;;
57778;SDS011;43608;49.486;9.640;2022-07-21T02:42:53;4.53;;;4.05;;
57778;SDS011;43608;49.486;9.640;2022-07-21T02:43:24;6.25;;;4.40;;
57778;SDS011;43608;49.486;9.640;2022-07-21T02:43:54;5.70;;;4.40;;
57778;SDS011;43608;49.486;9.640;2022-07-21T02:44:25;4.88;;;4.38;;
57778;SDS011;43608;49.486;9.640;2022-07-21T02:44:55;4.78;;;4.28;;
57778;SDS011;43608;49.486;9.640;2022-07-21T02:45:26;4.60;;;4.00;;
57778;SDS011;43608;49.486;9.640;2022-07-21T02:45:56;4.95;;;4.05;;
57778;SDS011;43608;49.486;9.640;2022-07-21T02:46:26;4.60;;;4.10;;
57778;SDS011;43608;49.486;9.640;2022-07-21T02:46:57;4.45;;;3.80;;
57778;SDS011;43608;49.486;9.640;2022-07-21T02:47:27;4.60;;;3.88;;
57778;SDS011;43608;49.486;9.640;2022-07-21T02:47:59;4.72;;;3.70;;
57778;SDS011;43608;49.486;9.640;2022-07-21T02:48:32;4.88;;;4.38;;
57778;SDS011;43608;49.486;9.640;2022-07-21T02:49:02;5.25;;;4.68;;
57778;SDS011;43608;49.486;9.640;2022-07-21T02:49:33;5.88;;;5.28;;
57778;SDS011;43608;49.486;9.640;2022-07-21T02:50:03;5.43;;;4.93;;
57778;SDS011;43608;49.486;9.640;2022-07-21T02:50:35;5.90;;;5.30;;
57778;SDS011;43608;49.486;9.640;2022-07-21T02:51:07;5.85;;;5.25;;
57778;SDS011;43608;49.486;9.640;2022-07-21T02:51:37;6.38;;;5.03;;
57778;SDS011;43608;49.486;9.640;2022-07-21T02:52:07;6.13;;;5.53;;
57778;SDS011;43608;49.486;9.640;2022-07-21T02:52:38;6.10;;;5.50;;
57778;SDS011;43608;49.486;9.640;2022-07-21T02:53:10;6.25;;;5.63;;
57778;SDS011;43608;49.486;9.640;2022-07-21T02:53:43;6.63;;;5.97;;
57778;SDS011;43608;49.486;9.640;2022-07-21T02:54:13;6.28;;;5.68;;
57778;SDS011;43608;49.486;9.640;2022-07-21T02:54:43;6.88;;;5.93;;
57778;SDS011;43608;49.486;9.640;2022-07-21T02:55:15;6.07;;;5.28;;
57778;SDS011;43608;49.486;9.640;2022-07-21T02:55:49;5.72;;;4.93;;
57778;SDS011;43608;49.486;9.640;2022-07-21T02:56:21;6.10;;;5.30;;
57778;SDS011;43608;49.486;9.640;2022-07-21T02:56:52;6.05;;;5.45;;
57778;SDS011;43608;49.486;9.640;2022-07-21T02:57:22;5.72;;;5.18;;
57778;SDS011;43608;49.486;9.640;2022-07-21T02:58:06;5.78;;;5.20;;
57778;SDS011;43608;49.486;9.640;2022-07-21T02:58:40;5.30;;;4.80;;
57778;SDS011;43608;49.486;9.640;2022-07-21T02:59:10;5.80;;;5.20;;
57778;SDS011;43608;49.486;9.640;2022-07-21T02:59:41;5.68;;;5.07;;
57778;SDS011;43608;49.486;9.640;2022-07-21T03:00:11;6.13;;;5.53;;
57778;SDS011;43608;49.486;9.640;2022-07-21T03:00:43;6.68;;;5.97;;
57778;SDS011;43608;49.486;9.640;2022-07-21T03:01:15;6.97;;;5.85;;
57778;SDS011;43608;49.486;9.640;2022-07-21T03:01:48;6.65;;;6.00;;
57778;SDS011;43608;49.486;9.640;2022-07-21T03:02:19;8.73;;;7.35;;
57778;SDS011;43608;49.486;9.640;2022-07-21T03:02:49;8.38;;;7.40;;
57778;SDS011;43608;49.486;9.640;2022-07-21T03:03:20;7.68;;;6.88;;
57778;SDS011;43608;49.486;9.640;2022-07-21T03:03:52;7.00;;;6.30;;
57778;SDS011;43608;49.486;9.640;2022-07-21T03:04:22;7.15;;;6.45;;
57778;SDS011;43608;49.486;9.640;2022-07-21T03:04:53;7.75;;;6.55;;
57778;SDS011;43608;49.486;9.640;2022-07-21T03:05:23;6.80;;;6.15;;
57778;SDS011;43608;49.486;9.640;2022-07-21T03:05:53;7.45;;;6.32;;
57778;SDS011;43608;49.486;9.640;2022-07-21T03:06:25;6.93;;;6.22;;
57778;SDS011;43608;49.486;9.640;2022-07-21T03:06:55;7.00;;;6.28;;
57778;SDS011;43608;49.486;9.640;2022-07-21T03:07:25;7.57;;;6.80;;
57778;SDS011;43608;49.486;9.640;2022-07-21T03:07:56;7.20;;;6.30;;